createdAt,value
2018-12-09T00:00:38.554Z,0.70
2018-12-09T00:03:07.602Z,0.83
2018-12-09T00:05:36.354Z,0.60
2018-12-09T00:08:04.920Z,0.83
2018-12-09T00:10:33.725Z,0.67
2018-12-09T00:13:03.508Z,0.70
2018-12-09T00:15:32.210Z,0.63
2018-12-09T00:18:01.387Z,0.60
2018-12-09T00:20:30.220Z,0.70
2018-12-09T00:23:03.272Z,0.60
2018-12-09T00:25:31.721Z,0.90
2018-12-09T00:28:00.894Z,1.10
2018-12-09T00:30:29.765Z,0.70
2018-12-09T00:32:59.227Z,1.30
2018-12-09T00:35:28.578Z,1.00
2018-12-09T00:37:57.814Z,1.00
2018-12-09T00:40:26.289Z,1.10
2018-12-09T00:42:55.399Z,1.20
2018-12-09T00:45:23.910Z,1.00
2018-12-09T00:47:52.373Z,1.30
2018-12-09T00:50:21.167Z,1.10
2018-12-09T00:52:50.353Z,1.10
2018-12-09T00:55:19.282Z,1.30
2018-12-09T00:57:48.131Z,1.13
2018-12-09T01:00:17.141Z,1.30
2018-12-09T01:02:46.720Z,1.10
2018-12-09T01:05:15.429Z,1.40
2018-12-09T01:07:43.884Z,1.40
2018-12-09T01:10:12.320Z,1.73
2018-12-09T01:12:40.781Z,1.33
2018-12-09T01:15:10.861Z,2.00
2018-12-09T01:17:39.820Z,1.60
2018-12-09T01:20:09.020Z,1.60
2018-12-09T01:22:38.224Z,1.93
2018-12-09T01:25:07.586Z,2.17
2018-12-09T01:27:36.879Z,2.63
2018-12-09T01:30:06.191Z,2.60
2018-12-09T01:32:36.324Z,1.80
2018-12-09T01:35:07.534Z,1.70
2018-12-09T01:37:36.892Z,1.90
2018-12-09T01:40:06.186Z,2.83
2018-12-09T01:42:39.306Z,2.17
2018-12-09T01:45:08.199Z,2.20
2018-12-09T01:47:36.966Z,2.67
2018-12-09T01:50:05.770Z,2.53
2018-12-09T01:52:34.525Z,2.40
2018-12-09T01:55:04.026Z,1.80
2018-12-09T01:57:32.458Z,1.60
2018-12-09T02:00:00.987Z,2.00
2018-12-09T02:02:29.773Z,1.90
2018-12-09T02:04:59.676Z,2.00
2018-12-09T02:07:28.120Z,2.03
2018-12-09T02:09:56.581Z,1.97
2018-12-09T02:12:25.495Z,1.97
2018-12-09T02:14:53.958Z,1.80
2018-12-09T02:17:22.555Z,1.57
2018-12-09T02:19:51.398Z,2.00
2018-12-09T02:22:19.950Z,1.70
2018-12-09T02:24:48.491Z,1.83
2018-12-09T02:27:17.041Z,1.57
2018-12-09T02:29:45.514Z,1.80
2018-12-09T02:32:13.953Z,1.63
2018-12-09T02:34:52.450Z,2.13
2018-12-09T02:37:20.913Z,1.93
2018-12-09T02:39:50.312Z,1.67
2018-12-09T02:42:19.124Z,2.00
2018-12-09T02:44:48.402Z,1.70
2018-12-09T02:47:16.843Z,1.83
2018-12-09T02:49:45.301Z,1.93
2018-12-09T02:52:13.842Z,1.90
2018-12-09T02:54:42.529Z,2.03
2018-12-09T02:57:10.957Z,1.70
2018-12-09T02:59:40.055Z,2.07
2018-12-09T03:02:08.534Z,1.90
2018-12-09T03:04:37.100Z,2.07
2018-12-09T03:07:05.575Z,2.10
2018-12-09T03:09:34.250Z,1.80
2018-12-09T03:12:03.562Z,2.17
2018-12-09T03:14:31.985Z,2.50
2018-12-09T03:17:00.451Z,2.10
2018-12-09T03:19:29.447Z,1.80
2018-12-09T03:21:57.930Z,2.30
2018-12-09T03:24:26.378Z,2.50
2018-12-09T03:26:55.198Z,1.93
2018-12-09T03:29:24.877Z,1.90
2018-12-09T03:31:53.403Z,2.23
2018-12-09T03:34:22.737Z,2.27
2018-12-09T03:36:52.219Z,1.67
2018-12-09T03:39:20.654Z,2.20
2018-12-09T03:41:49.353Z,2.20
2018-12-09T03:44:17.780Z,2.10
2018-12-09T03:46:46.241Z,2.10
2018-12-09T03:49:15.973Z,2.80
2018-12-09T03:51:44.441Z,2.00
2018-12-09T03:54:12.889Z,2.40
2018-12-09T03:56:41.367Z,2.07
2018-12-09T03:59:12.546Z,2.20
2018-12-09T04:01:41.385Z,2.23
2018-12-09T04:04:10.049Z,2.00
2018-12-09T04:06:38.550Z,2.23
2018-12-09T04:09:07.634Z,2.23
2018-12-09T04:11:36.102Z,2.00
2018-12-09T04:14:04.794Z,2.10
2018-12-09T04:16:34.095Z,2.30
2018-12-09T04:19:02.777Z,2.00
2018-12-09T04:21:32.136Z,2.03
2018-12-09T04:24:01.085Z,1.90
2018-12-09T04:26:29.638Z,1.90
2018-12-09T04:28:58.107Z,1.87
2018-12-09T04:31:26.561Z,1.90
2018-12-09T04:33:55.446Z,2.73
2018-12-09T04:36:24.221Z,2.10
2018-12-09T04:38:53.695Z,2.07
2018-12-09T04:41:22.910Z,2.27
2018-12-09T04:43:51.920Z,2.20
2018-12-09T04:46:22.090Z,2.23
2018-12-09T04:48:50.936Z,2.27
2018-12-09T04:51:19.484Z,2.57
2018-12-09T04:53:47.940Z,2.83
2018-12-09T04:56:16.874Z,2.20
2018-12-09T04:59:23.371Z,1.90
2018-12-09T05:01:52.485Z,2.90
2018-12-09T05:04:22.289Z,2.00
2018-12-09T05:06:50.781Z,2.00
2018-12-09T05:09:19.467Z,2.53
2018-12-09T05:11:49.045Z,2.30
2018-12-09T05:14:17.965Z,2.10
2018-12-09T05:16:47.063Z,1.90
2018-12-09T05:19:15.531Z,1.80
2018-12-09T05:21:43.967Z,1.83
2018-12-09T05:24:12.460Z,1.93
2018-12-09T05:26:42.058Z,1.53
2018-12-09T05:29:10.986Z,1.13
2018-12-09T05:31:39.546Z,1.57
2018-12-09T05:34:08.004Z,1.40
2018-12-09T05:36:37.085Z,1.10
2018-12-09T05:39:06.647Z,1.73
2018-12-09T05:41:35.530Z,1.17
2018-12-09T05:44:04.110Z,1.20
2018-12-09T05:46:33.068Z,1.63
2018-12-09T05:49:01.530Z,1.50
2018-12-09T05:51:30.263Z,1.57
2018-12-09T05:53:58.985Z,2.13
2018-12-09T05:56:28.594Z,1.83
2018-12-09T05:58:57.062Z,1.70
2018-12-09T06:01:25.488Z,2.10
2018-12-09T06:03:54.200Z,2.37
2018-12-09T06:06:22.761Z,2.47
2018-12-09T06:08:52.463Z,1.77
2018-12-09T06:11:21.910Z,1.57
2018-12-09T06:13:50.406Z,1.87
2018-12-09T06:16:19.086Z,0.97
2018-12-09T06:18:47.593Z,1.03
2018-12-09T06:21:17.228Z,0.90
2018-12-09T06:23:45.709Z,1.33
2018-12-09T06:26:14.258Z,1.40
2018-12-09T06:28:43.076Z,1.13
2018-12-09T06:31:12.710Z,0.97
2018-12-09T06:33:41.155Z,1.27
2018-12-09T06:36:10.231Z,1.07
2018-12-09T06:38:38.671Z,1.10
2018-12-09T06:41:07.373Z,1.27
2018-12-09T06:43:35.786Z,1.67
2018-12-09T06:46:04.829Z,2.07
2018-12-09T06:48:33.651Z,1.97
2018-12-09T06:51:02.334Z,1.73
2018-12-09T06:53:30.775Z,1.20
2018-12-09T06:56:14.892Z,1.47
2018-12-09T06:58:44.923Z,1.80
2018-12-09T07:01:30.837Z,1.77
2018-12-09T07:04:06.866Z,2.10
2018-12-09T07:12:01.703Z,1.40
2018-12-09T07:14:31.068Z,2.17
2018-12-09T07:17:08.117Z,1.70
2018-12-09T07:19:36.642Z,1.60
2018-12-09T07:22:05.110Z,1.30
2018-12-09T07:25:02.211Z,1.87
2018-12-09T07:27:32.940Z,1.50
2018-12-09T07:30:03.652Z,1.63
2018-12-09T07:32:38.201Z,1.70
2018-12-09T07:35:09.692Z,1.80
2018-12-09T07:37:38.897Z,1.80
2018-12-09T07:40:10.164Z,1.40
2018-12-09T07:42:43.943Z,1.43
2018-12-09T07:45:13.926Z,1.67
2018-12-09T07:47:42.913Z,1.10
2018-12-09T07:50:17.582Z,1.90
2018-12-09T07:52:48.369Z,1.37
2018-12-09T07:55:19.382Z,1.57
2018-12-09T07:57:48.579Z,1.97
2018-12-09T08:00:19.781Z,1.90
2018-12-09T08:02:54.689Z,1.87
2018-12-09T08:05:27.163Z,2.23
2018-12-09T08:08:01.280Z,2.03
2018-12-09T08:10:52.785Z,2.17
2018-12-09T08:13:22.652Z,2.10
2018-12-09T08:15:52.851Z,1.67
2018-12-09T08:18:27.001Z,1.90
2018-12-09T08:20:56.962Z,1.77
2018-12-09T08:23:25.438Z,1.80
2018-12-09T08:25:59.791Z,1.73
2018-12-09T08:28:28.319Z,1.80
2018-12-09T08:30:58.437Z,2.00
2018-12-09T08:33:28.777Z,2.50
2018-12-09T08:36:00.775Z,15.67
2018-12-09T08:38:30.711Z,20.97
2018-12-09T08:41:01.613Z,4.73
2018-12-09T08:43:38.616Z,6.47
2018-12-09T08:46:33.038Z,4.20
2018-12-09T08:49:04.901Z,5.03
2018-12-09T08:51:35.521Z,2.27
2018-12-09T08:54:07.355Z,1.97
2018-12-09T08:56:38.512Z,2.40
2018-12-09T08:59:10.092Z,2.40
2018-12-09T09:01:41.485Z,2.00
2018-12-09T09:04:19.502Z,2.97
2018-12-09T09:06:48.416Z,1.80
2018-12-09T09:09:22.172Z,2.20
2018-12-09T09:11:53.634Z,1.83
2018-12-09T09:14:23.097Z,1.97
2018-12-09T09:16:51.530Z,1.83
2018-12-09T09:19:29.197Z,1.97
2018-12-09T09:22:02.144Z,1.83
2018-12-09T09:24:39.171Z,1.70
2018-12-09T09:27:11.476Z,1.97
2018-12-09T09:29:44.265Z,2.53
2018-12-09T09:32:20.730Z,1.93
2018-12-09T09:34:51.941Z,2.00
2018-12-09T09:37:28.687Z,2.50
2018-12-09T09:39:57.366Z,1.60
2018-12-09T09:42:32.922Z,1.70
2018-12-09T09:45:07.604Z,2.00
2018-12-09T09:47:39.763Z,2.17
2018-12-09T09:50:13.241Z,1.70
2018-12-09T09:52:45.749Z,1.80
2018-12-09T09:55:15.760Z,1.90
2018-12-09T09:57:44.214Z,2.03
2018-12-09T10:00:13.582Z,2.00
2018-12-09T10:02:42.744Z,1.90
2018-12-09T10:05:13.477Z,2.30
2018-12-09T10:07:42.758Z,2.30
2018-12-09T10:10:13.333Z,2.40
2018-12-09T10:12:41.892Z,2.70
2018-12-09T10:15:10.347Z,2.50
2018-12-09T10:17:42.903Z,2.53
2018-12-09T10:20:13.028Z,2.43
2018-12-09T10:22:42.731Z,2.10
2018-12-09T10:25:11.760Z,3.17
2018-12-09T10:27:41.007Z,2.50
2018-12-09T10:30:10.551Z,2.20
2018-12-09T10:32:39.236Z,2.20
2018-12-09T10:35:16.563Z,2.10
2018-12-09T10:37:48.635Z,3.00
2018-12-09T10:40:20.386Z,1.97
2018-12-09T10:42:49.721Z,2.40
2018-12-09T10:45:19.680Z,2.70
2018-12-09T10:47:51.664Z,2.17
2018-12-09T10:50:21.270Z,2.50
2018-12-09T10:52:51.682Z,1.80
2018-12-09T10:55:20.335Z,1.63
2018-12-09T10:57:48.797Z,1.80
2018-12-09T11:00:19.274Z,2.13
2018-12-09T11:02:47.968Z,1.50
2018-12-09T11:05:17.468Z,2.03
2018-12-09T11:07:46.046Z,2.43
2018-12-09T11:10:14.511Z,2.30
2018-12-09T11:12:44.058Z,1.70
2018-12-09T11:15:13.340Z,2.10
2018-12-09T11:17:41.823Z,2.07
2018-12-09T11:20:10.501Z,1.60
2018-12-09T11:22:40.040Z,3.23
2018-12-09T11:25:08.837Z,2.10
2018-12-09T11:27:38.627Z,2.00
2018-12-09T11:30:08.414Z,1.90
2018-12-09T11:32:37.564Z,2.60
2018-12-09T11:35:06.696Z,2.33
2018-12-09T11:37:35.351Z,2.27
2018-12-09T11:40:05.320Z,2.33
2018-12-09T11:42:34.510Z,1.73
2018-12-09T11:45:04.691Z,1.30
2018-12-09T11:47:33.876Z,1.50
2018-12-09T11:50:02.327Z,1.43
2018-12-09T11:52:30.761Z,1.70
2018-12-09T11:55:00.260Z,1.43
2018-12-09T11:57:28.924Z,1.30
2018-12-09T11:59:57.379Z,1.50
2018-12-09T12:02:25.814Z,1.20
2018-12-09T12:04:54.281Z,1.47
2018-12-09T12:07:23.083Z,1.70
2018-12-09T12:09:52.144Z,1.37
2018-12-09T12:12:21.538Z,2.03
2018-12-09T12:14:50.461Z,1.33
2018-12-09T12:17:19.124Z,1.30
2018-12-09T12:19:48.116Z,4.30
2018-12-09T12:22:16.558Z,0.90
2018-12-09T12:24:45.051Z,1.10
2018-12-09T12:27:13.493Z,1.77
2018-12-09T12:29:41.954Z,1.10
2018-12-09T12:32:10.389Z,1.00
2018-12-09T12:34:38.858Z,0.60
2018-12-09T12:37:08.260Z,1.03
2018-12-09T12:39:36.755Z,0.80
2018-12-09T12:42:05.325Z,1.17
2018-12-09T12:44:38.786Z,0.67
2018-12-09T12:47:07.336Z,0.80
2018-12-09T12:49:36.291Z,0.60
2018-12-09T12:52:05.636Z,0.40
2018-12-09T12:54:35.039Z,0.70
2018-12-09T12:57:03.466Z,0.70
2018-12-09T12:59:31.918Z,0.50
2018-12-09T13:02:00.733Z,0.70
2018-12-09T13:04:29.428Z,0.67
2018-12-09T13:06:59.109Z,0.40
2018-12-09T13:09:27.571Z,0.60
2018-12-09T13:11:57.074Z,0.60
2018-12-09T13:14:27.682Z,0.70
2018-12-09T13:16:57.841Z,0.80
2018-12-09T13:19:28.166Z,0.70
2018-12-09T13:22:06.991Z,0.40
2018-12-09T13:24:41.933Z,0.70
2018-12-09T13:27:11.615Z,0.67
2018-12-09T13:29:42.831Z,0.83
2018-12-09T13:32:11.420Z,0.60
2018-12-09T13:34:40.622Z,0.90
2018-12-09T13:37:10.641Z,1.10
2018-12-09T13:39:41.943Z,0.93
2018-12-09T13:42:13.168Z,1.00
2018-12-09T13:44:42.406Z,0.83
2018-12-09T13:47:11.733Z,0.80
2018-12-09T13:49:45.230Z,0.77
2018-12-09T13:52:16.455Z,0.80
2018-12-09T13:54:45.915Z,0.63
2018-12-09T13:57:16.314Z,0.83
2018-12-09T13:59:46.438Z,0.83
2018-12-09T14:02:16.481Z,1.00
2018-12-09T14:04:48.765Z,1.00
2018-12-09T14:07:17.835Z,0.83
2018-12-09T14:09:47.312Z,0.80
2018-12-09T14:12:20.646Z,1.20
2018-12-09T14:14:49.480Z,0.90
2018-12-09T14:17:18.777Z,1.17
2018-12-09T14:19:50.258Z,1.00
2018-12-09T14:22:20.165Z,1.10
2018-12-09T14:24:51.645Z,0.90
2018-12-09T14:27:23.345Z,0.80
2018-12-09T14:29:58.890Z,0.90
2018-12-09T14:32:32.288Z,0.53
2018-12-09T14:35:06.695Z,0.80
2018-12-09T14:37:38.137Z,0.93
2018-12-09T14:40:12.212Z,0.60
2018-12-09T14:42:44.760Z,0.67
2018-12-09T14:45:19.794Z,0.50
2018-12-09T14:47:51.309Z,0.47
2018-12-09T14:50:21.534Z,0.70
2018-12-09T14:52:52.945Z,0.40
2018-12-09T14:55:25.330Z,0.63
2018-12-09T14:57:54.813Z,0.70
2018-12-09T15:00:26.600Z,0.50
2018-12-09T15:02:58.582Z,0.50
2018-12-09T15:05:32.362Z,0.60
2018-12-09T15:08:02.555Z,0.50
2018-12-09T15:10:35.121Z,0.40
2018-12-09T15:13:08.141Z,0.50
2018-12-09T15:15:39.268Z,0.60
2018-12-09T15:18:11.069Z,0.63
2018-12-09T15:20:42.248Z,0.60
2018-12-09T15:23:11.590Z,0.53
2018-12-09T15:25:42.449Z,0.60
2018-12-09T15:28:13.324Z,0.57
2018-12-09T15:30:44.293Z,0.70
2018-12-09T15:33:15.743Z,0.60
2018-12-09T15:35:44.445Z,0.47
2018-12-09T15:38:18.837Z,0.40
2018-12-09T15:40:51.196Z,0.53
2018-12-09T15:43:24.213Z,0.50
2018-12-09T15:45:55.972Z,0.50
2018-12-09T15:48:28.114Z,0.90
2018-12-09T15:51:05.564Z,0.70
2018-12-09T15:53:34.232Z,0.87
2018-12-09T15:56:07.740Z,0.90
2018-12-09T15:58:39.824Z,0.70
2018-12-09T16:01:11.628Z,0.60
2018-12-09T16:03:43.894Z,0.60
2018-12-09T16:06:24.517Z,0.70
2018-12-09T16:08:54.442Z,0.70
2018-12-09T16:11:30.753Z,0.60
2018-12-09T16:14:03.956Z,0.67
2018-12-09T16:16:36.184Z,0.80
2018-12-09T16:19:09.713Z,0.80
2018-12-09T16:21:40.660Z,0.73
2018-12-09T16:24:10.110Z,1.30
2018-12-09T16:26:51.562Z,1.13
2018-12-09T16:29:20.485Z,0.83
2018-12-09T16:31:50.605Z,1.00
2018-12-09T16:34:19.233Z,0.80
2018-12-09T16:36:48.054Z,0.90
2018-12-09T16:39:16.610Z,0.70
2018-12-09T16:41:46.673Z,0.90
2018-12-09T16:44:17.368Z,1.00
2018-12-09T16:46:53.416Z,0.90
2018-12-09T16:49:29.595Z,1.00
2018-12-09T16:52:07.443Z,0.83
2018-12-09T16:54:41.505Z,0.90
2018-12-09T16:57:10.926Z,1.10
2018-12-09T16:59:42.051Z,1.00
2018-12-09T17:02:16.673Z,1.10
2018-12-09T17:04:47.490Z,1.10
2018-12-09T17:07:20.652Z,1.20
2018-12-09T17:10:00.043Z,1.13
2018-12-09T17:12:38.821Z,1.40
2018-12-09T17:15:17.908Z,1.53
2018-12-09T17:17:49.235Z,1.53
2018-12-09T17:20:21.374Z,1.80
2018-12-09T17:22:52.617Z,1.47
2018-12-09T17:25:24.855Z,1.90
2018-12-09T17:28:01.245Z,1.67
2018-12-09T17:30:36.799Z,1.53
2018-12-09T17:33:08.912Z,2.10
2018-12-09T17:35:49.019Z,2.53
2018-12-09T17:38:23.197Z,2.67
2018-12-09T17:41:00.525Z,3.73
2018-12-09T17:43:39.013Z,5.23
2018-12-09T17:46:10.822Z,3.83
2018-12-09T17:48:44.347Z,3.80
2018-12-09T17:51:16.614Z,4.37
2018-12-09T17:53:46.368Z,4.37
2018-12-09T17:56:19.875Z,3.10
2018-12-09T17:58:49.711Z,3.10
2018-12-09T18:01:19.841Z,3.60
2018-12-09T18:03:50.281Z,3.97
2018-12-09T18:06:23.864Z,3.77
2018-12-09T18:08:54.011Z,4.03
2018-12-09T18:11:24.409Z,3.30
2018-12-09T18:13:55.172Z,4.67
2018-12-09T18:16:25.405Z,4.97
2018-12-09T18:18:55.000Z,4.70
2018-12-09T18:21:25.265Z,4.23
2018-12-09T18:23:55.308Z,4.70
2018-12-09T18:26:24.217Z,3.50
2018-12-09T18:28:55.919Z,3.80
2018-12-09T18:31:26.005Z,3.40
2018-12-09T18:33:56.211Z,3.30
2018-12-09T18:36:25.030Z,3.87
2018-12-09T18:38:55.340Z,3.53
2018-12-09T18:41:26.001Z,3.40
2018-12-09T18:43:56.604Z,3.20
2018-12-09T18:46:26.849Z,3.40
2018-12-09T18:48:58.130Z,3.57
2018-12-09T18:51:32.030Z,3.03
2018-12-09T18:54:02.492Z,3.17
2018-12-09T18:56:38.907Z,3.80
2018-12-09T18:59:10.391Z,3.63
2018-12-09T19:01:45.739Z,3.47
2018-12-09T19:04:19.424Z,3.20
2018-12-09T19:07:00.155Z,3.60
2018-12-09T19:09:31.908Z,2.70
2018-12-09T19:12:05.555Z,3.60
2018-12-09T19:14:36.828Z,3.60
2018-12-09T19:17:06.192Z,3.30
2018-12-09T19:19:39.171Z,3.00
2018-12-09T19:22:09.543Z,2.90
2018-12-09T19:24:38.081Z,2.60
2018-12-09T19:27:06.944Z,3.07
2018-12-09T19:29:35.468Z,2.70
2018-12-09T19:32:06.423Z,2.20
2018-12-09T19:34:36.804Z,2.10
2018-12-09T19:37:05.695Z,2.30
2018-12-09T19:39:35.407Z,2.30
2018-12-09T19:42:07.661Z,2.37
2018-12-09T19:44:36.173Z,2.20
2018-12-09T19:47:08.431Z,2.53
2018-12-09T19:49:37.622Z,2.70
2018-12-09T19:52:07.216Z,2.60
2018-12-09T19:54:37.765Z,2.40
2018-12-09T19:57:06.515Z,2.23
2018-12-09T19:59:36.516Z,3.30
2018-12-09T20:02:04.948Z,2.60
2018-12-09T20:04:33.394Z,2.43
2018-12-09T20:07:02.816Z,2.20
2018-12-09T20:09:32.444Z,2.33
2018-12-09T20:12:00.912Z,2.40
2018-12-09T20:14:29.837Z,2.40
2018-12-09T20:16:59.340Z,2.63
2018-12-09T20:19:27.868Z,2.47
2018-12-09T20:21:56.334Z,2.77
2018-12-09T20:24:24.764Z,2.90
2018-12-09T20:26:53.551Z,2.50
2018-12-09T20:29:22.995Z,2.77
2018-12-09T20:31:52.471Z,2.50
2018-12-09T20:34:21.320Z,2.60
2018-12-09T20:36:49.763Z,2.27
2018-12-09T20:39:18.215Z,2.67
2018-12-09T20:41:46.634Z,2.67
2018-12-09T20:44:15.976Z,2.50
2018-12-09T20:46:45.095Z,2.30
2018-12-09T20:49:14.906Z,2.47
2018-12-09T20:51:43.582Z,2.47
2018-12-09T20:54:12.027Z,2.10
2018-12-09T20:56:41.288Z,2.23
2018-12-09T20:59:10.121Z,2.37
2018-12-09T21:01:38.575Z,2.70
2018-12-09T21:04:08.391Z,2.80
2018-12-09T21:06:36.821Z,2.23
2018-12-09T21:09:08.203Z,2.43
2018-12-09T21:11:36.667Z,2.40
2018-12-09T21:14:05.110Z,2.30
2018-12-09T21:16:33.835Z,3.53
2018-12-09T21:19:02.367Z,2.77
2018-12-09T21:21:31.814Z,2.70
2018-12-09T21:24:00.574Z,2.10
2018-12-09T21:26:29.525Z,2.40
2018-12-09T21:28:57.961Z,2.20
2018-12-09T21:31:26.732Z,2.40
2018-12-09T21:33:55.527Z,2.03
2018-12-09T21:36:25.524Z,2.20
2018-12-09T21:38:53.942Z,1.93
2018-12-09T21:41:22.437Z,2.57
2018-12-09T21:43:51.472Z,2.60
2018-12-09T21:46:20.057Z,2.70
2018-12-09T21:48:48.501Z,2.77
2018-12-09T21:51:17.374Z,1.70
2018-12-09T21:53:46.791Z,1.93
2018-12-09T21:56:15.962Z,2.47
2018-12-09T21:58:45.045Z,2.33
2018-12-09T22:01:14.118Z,1.97
2018-12-09T22:03:42.838Z,2.30
2018-12-09T22:06:11.536Z,2.30
2018-12-09T22:08:39.993Z,1.80
2018-12-09T22:11:08.779Z,2.43
2018-12-09T22:13:37.467Z,2.60
2018-12-09T22:16:06.482Z,2.20
2018-12-09T22:18:35.955Z,2.10
2018-12-09T22:21:05.484Z,2.03
2018-12-09T22:23:35.131Z,2.00
2018-12-09T22:26:04.495Z,2.20
2018-12-09T22:28:33.166Z,2.40
2018-12-09T22:31:02.686Z,2.70
2018-12-09T22:33:32.095Z,2.53
2018-12-09T22:36:00.565Z,2.07
2018-12-09T22:38:29.598Z,2.50
2018-12-09T22:40:58.276Z,2.10
2018-12-09T22:43:29.083Z,2.27
2018-12-09T22:45:59.038Z,2.63
2018-12-09T22:48:27.860Z,2.70
2018-12-09T22:50:56.792Z,2.57
2018-12-09T22:53:27.101Z,2.67
2018-12-09T22:55:55.572Z,2.20
2018-12-09T22:58:24.382Z,2.60
2018-12-09T23:00:58.367Z,2.57
2018-12-09T23:03:28.018Z,2.50
2018-12-09T23:05:57.114Z,2.67
2018-12-09T23:08:27.003Z,2.63
2018-12-09T23:10:55.788Z,2.27
2018-12-09T23:13:24.277Z,2.60
2018-12-09T23:15:53.131Z,2.40
2018-12-09T23:18:22.122Z,3.43
2018-12-09T23:20:51.839Z,2.23
2018-12-09T23:23:22.995Z,2.67
2018-12-09T23:25:51.434Z,3.67
2018-12-09T23:28:20.507Z,2.53
2018-12-09T23:30:49.031Z,3.13
2018-12-09T23:33:17.778Z,3.00
2018-12-09T23:35:47.229Z,3.07
2018-12-09T23:38:16.402Z,3.37
2018-12-09T23:40:45.380Z,3.70
2018-12-09T23:43:13.847Z,3.80
2018-12-09T23:45:42.805Z,3.50
2018-12-09T23:48:13.041Z,3.27
2018-12-09T23:50:41.463Z,3.97
2018-12-09T23:53:10.000Z,3.97
2018-12-09T23:55:38.763Z,3.40
2018-12-09T23:58:09.004Z,3.70
